Nash, North Dakota
Current Conditions -  °F | °C
As of 6:15 AM on Saturday 25 Oct 2014 (Local Time) from KGAF Reporting Station
Clear Clear  
Wind Chill: 33°   Ceiling: Unl
Heat Index: 41°   Visibility: 10mi
Dew Point: 32°   Wind: 16mph
Humidity: 70%   Direction: 280°W
Pressure: 29.99"   Gusts: NA
Location:  48.4031°N, 97.4245°W
Report Text: KGAF 251115Z AUTO 28014KT 10SM CLR 05/00 A2999 RMK AO2
Loading
Personal Weather Stations






























Interactive Weather Map
Tropical Storm Tracking
New forecast layout! Learn more

10-Day Weather Forecast

Advertisements
Track Severe Weather on mobile